createdAt,value
2023-01-28T00:01:19.836Z,99.90
2023-01-28T00:03:50.289Z,99.90
2023-01-28T00:06:16.942Z,99.90
2023-01-28T00:08:43.672Z,99.90
2023-01-28T00:11:12.729Z,99.90
2023-01-28T00:13:39.739Z,99.90
2023-01-28T00:16:11.356Z,99.90
2023-01-28T00:18:38.294Z,99.90
2023-01-28T00:21:08.135Z,99.90
2023-01-28T00:23:36.768Z,99.90
2023-01-28T00:26:06.113Z,99.90
2023-01-28T00:28:33.325Z,99.90
2023-01-28T00:31:07.118Z,99.90
2023-01-28T00:33:33.849Z,99.90
2023-01-28T00:36:01.371Z,99.90
2023-01-28T00:38:28.897Z,99.90
2023-01-28T00:40:55.844Z,99.90
2023-01-28T00:43:23.425Z,99.90
2023-01-28T00:45:50.509Z,99.90
2023-01-28T00:48:17.334Z,99.90
2023-01-28T00:50:45.448Z,99.90
2023-01-28T00:53:12.211Z,99.90
2023-01-28T00:55:39.091Z,99.90
2023-01-28T00:58:05.907Z,99.90
2023-01-28T01:00:32.562Z,99.90
2023-01-28T01:02:59.755Z,99.90
2023-01-28T01:05:26.521Z,99.90
2023-01-28T01:07:53.205Z,99.90
2023-01-28T01:10:20.306Z,99.90
2023-01-28T01:12:48.251Z,99.90
2023-01-28T01:15:16.325Z,99.90
2023-01-28T01:17:45.801Z,99.90
2023-01-28T01:20:16.923Z,99.90
2023-01-28T01:22:43.699Z,99.90
2023-01-28T01:25:12.707Z,99.90
2023-01-28T01:27:41.159Z,99.90
2023-01-28T01:30:09.251Z,99.90
2023-01-28T01:32:36.345Z,99.90
2023-01-28T01:35:06.695Z,99.90
2023-01-28T01:37:33.791Z,99.90
2023-01-28T01:40:04.970Z,99.90
2023-01-28T01:42:33.362Z,99.90
2023-01-28T01:45:05.118Z,99.90
2023-01-28T01:47:53.680Z,99.90
2023-01-28T01:50:20.345Z,99.90
2023-01-28T01:52:49.937Z,99.90
2023-01-28T01:55:21.025Z,99.90
2023-01-28T01:57:50.733Z,99.90
2023-01-28T02:00:17.967Z,99.90
2023-01-28T02:02:50.758Z,99.90
2023-01-28T02:05:21.448Z,99.90
2023-01-28T02:07:55.622Z,99.90
2023-01-28T02:10:23.761Z,99.90
2023-01-28T02:12:56.166Z,99.90
2023-01-28T02:15:27.264Z,99.90
2023-01-28T02:17:54.619Z,99.90
2023-01-28T02:21:03.050Z,99.90
2023-01-28T02:23:38.740Z,99.90
2023-01-28T02:26:08.418Z,99.90
2023-01-28T02:28:50.462Z,99.90
2023-01-28T02:31:27.355Z,99.90
2023-01-28T02:33:57.217Z,99.90
2023-01-28T02:36:51.245Z,99.90
2023-01-28T02:39:30.436Z,99.90
2023-01-28T02:42:04.277Z,99.90
2023-01-28T02:44:31.020Z,99.90
2023-01-28T02:47:16.443Z,99.90
2023-01-28T02:49:46.106Z,99.90
2023-01-28T02:52:42.646Z,99.90
2023-01-28T02:55:43.509Z,99.90
2023-01-28T02:58:34.994Z,99.90
2023-01-28T03:01:08.551Z,99.90
2023-01-28T03:03:40.214Z,99.90
2023-01-28T03:06:09.914Z,99.90
2023-01-28T03:09:06.323Z,99.90
2023-01-28T03:11:56.410Z,99.90
2023-01-28T03:14:43.216Z,99.90
2023-01-28T03:17:37.232Z,99.90
2023-01-28T03:20:23.348Z,99.90
2023-01-28T03:23:12.098Z,99.90
2023-01-28T03:26:01.697Z,99.90
2023-01-28T03:28:50.283Z,99.90
2023-01-28T03:31:39.334Z,99.90
2023-01-28T03:34:26.282Z,99.90
2023-01-28T03:36:54.339Z,99.90
2023-01-28T03:39:39.411Z,99.90
2023-01-28T03:42:12.182Z,99.90
2023-01-28T03:44:50.776Z,99.90
2023-01-28T03:47:23.364Z,99.90
2023-01-28T03:49:52.214Z,99.90
2023-01-28T03:52:26.840Z,99.90
2023-01-28T03:54:59.279Z,99.90
2023-01-28T03:57:28.093Z,99.90
2023-01-28T03:59:55.165Z,99.90
2023-01-28T04:02:23.383Z,99.90
2023-01-28T04:04:52.163Z,99.90
2023-01-28T04:07:18.935Z,99.90
2023-01-28T04:10:13.256Z,99.90
2023-01-28T04:12:49.776Z,99.90
2023-01-28T04:15:17.588Z,99.90
2023-01-28T04:17:48.168Z,99.90
2023-01-28T04:20:27.029Z,99.90
2023-01-28T04:22:54.686Z,99.90
2023-01-28T04:25:22.648Z,99.90
2023-01-28T04:27:49.434Z,99.90
2023-01-28T04:30:22.103Z,99.90
2023-01-28T04:33:02.985Z,99.90
2023-01-28T04:35:42.426Z,99.90
2023-01-28T04:38:21.657Z,99.90
2023-01-28T04:40:57.946Z,99.90
2023-01-28T04:43:27.943Z,99.90
2023-01-28T04:46:13.578Z,99.90
2023-01-28T04:48:53.418Z,99.90
2023-01-28T04:51:38.923Z,99.90
2023-01-28T04:54:32.212Z,99.90
2023-01-28T04:57:01.744Z,99.90
2023-01-28T04:59:29.496Z,99.90
2023-01-28T05:01:56.394Z,99.90
2023-01-28T05:04:23.189Z,99.90
2023-01-28T05:06:50.117Z,99.90
2023-01-28T05:09:21.736Z,99.90
2023-01-28T05:11:50.585Z,99.90
2023-01-28T05:14:17.405Z,99.90
2023-01-28T05:17:02.658Z,99.90
2023-01-28T05:19:29.359Z,99.90
2023-01-28T05:21:56.886Z,99.90
2023-01-28T05:24:30.976Z,99.90
2023-01-28T05:26:57.870Z,99.90
2023-01-28T05:29:24.753Z,99.90
2023-01-28T05:31:51.842Z,99.90
2023-01-28T05:34:19.123Z,99.90
2023-01-28T05:36:45.835Z,99.90
2023-01-28T05:39:38.883Z,99.90
2023-01-28T05:42:05.707Z,99.90
2023-01-28T05:44:34.884Z,99.90
2023-01-28T05:47:27.892Z,99.90
2023-01-28T05:50:20.796Z,99.90
2023-01-28T05:53:08.231Z,99.90
2023-01-28T05:55:36.264Z,99.90
2023-01-28T05:58:03.210Z,99.90
2023-01-28T06:00:29.878Z,99.90
2023-01-28T06:02:56.603Z,99.90
2023-01-28T06:05:23.881Z,99.90
2023-01-28T06:07:51.103Z,99.90
2023-01-28T06:10:18.232Z,99.90
2023-01-28T06:12:45.730Z,99.90
2023-01-28T06:15:32.208Z,99.90
2023-01-28T06:18:01.840Z,99.90
2023-01-28T06:20:32.300Z,99.90
2023-01-28T06:23:00.174Z,99.90
2023-01-28T06:25:27.005Z,99.90
2023-01-28T06:27:54.413Z,99.90
2023-01-28T06:30:21.116Z,99.90
2023-01-28T06:32:47.761Z,99.90
2023-01-28T06:35:14.539Z,99.90
2023-01-28T06:37:41.715Z,99.90
2023-01-28T06:40:09.224Z,99.90
2023-01-28T06:42:35.881Z,99.90
2023-01-28T06:45:02.599Z,99.90
2023-01-28T06:47:29.257Z,99.90
2023-01-28T06:49:55.911Z,99.90
2023-01-28T06:52:22.550Z,99.90
2023-01-28T06:54:49.244Z,99.90
2023-01-28T06:57:15.892Z,99.90
2023-01-28T06:59:42.577Z,99.90
2023-01-28T07:02:11.583Z,99.90
2023-01-28T07:04:38.252Z,99.90
2023-01-28T07:07:04.909Z,99.90
2023-01-28T07:09:31.639Z,99.90
2023-01-28T07:11:58.280Z,99.90
2023-01-28T07:14:24.927Z,99.90
2023-01-28T07:16:51.652Z,99.90
2023-01-28T07:19:18.374Z,99.90
2023-01-28T07:21:45.273Z,99.90
2023-01-28T07:24:11.981Z,99.90
2023-01-28T07:26:38.627Z,99.90
2023-01-28T07:29:05.369Z,99.90
2023-01-28T07:31:32.211Z,99.90
2023-01-28T07:33:58.963Z,99.90
2023-01-28T07:36:25.808Z,99.90
2023-01-28T07:38:52.475Z,99.90
2023-01-28T07:41:19.202Z,99.90
2023-01-28T07:43:45.863Z,99.90
2023-01-28T07:46:12.933Z,99.90
2023-01-28T07:48:39.702Z,99.90
2023-01-28T07:51:06.964Z,99.90
2023-01-28T07:53:33.708Z,99.90
2023-01-28T07:56:01.439Z,99.90
2023-01-28T07:58:28.824Z,99.90
2023-01-28T08:00:59.084Z,99.90
2023-01-28T08:03:26.514Z,99.90
2023-01-28T08:05:55.492Z,99.90
2023-01-28T08:08:27.323Z,99.90
2023-01-28T08:10:54.291Z,99.90
2023-01-28T08:13:21.456Z,99.90
2023-01-28T08:15:48.396Z,99.90
2023-01-28T08:18:17.449Z,99.90
2023-01-28T08:20:46.288Z,99.90
2023-01-28T08:23:21.935Z,99.90
2023-01-28T08:25:49.928Z,99.90
2023-01-28T08:28:17.088Z,99.90
2023-01-28T08:30:44.131Z,99.90
2023-01-28T08:33:13.110Z,99.60
2023-01-28T08:35:40.316Z,99.70
2023-01-28T08:38:08.542Z,99.90
2023-01-28T08:40:35.639Z,99.80
2023-01-28T08:43:03.380Z,99.90
2023-01-28T08:45:30.317Z,99.90
2023-01-28T08:48:09.919Z,99.90
2023-01-28T08:50:38.659Z,99.90
2023-01-28T08:53:11.459Z,99.90
2023-01-28T08:55:38.214Z,99.90
2023-01-28T08:58:11.964Z,99.90
2023-01-28T09:00:39.594Z,99.90
2023-01-28T09:03:06.888Z,99.90
2023-01-28T09:05:37.283Z,99.90
2023-01-28T09:08:06.624Z,99.90
2023-01-28T09:10:33.528Z,99.50
2023-01-28T09:13:08.696Z,99.80
2023-01-28T09:15:35.840Z,99.90
2023-01-28T09:18:02.872Z,99.80
2023-01-28T09:20:29.548Z,99.90
2023-01-28T09:22:56.277Z,99.90
2023-01-28T09:25:22.984Z,99.90
2023-01-28T09:27:49.624Z,99.90
2023-01-28T09:30:17.162Z,99.40
2023-01-28T09:32:44.093Z,99.40
2023-01-28T09:35:11.832Z,99.70
2023-01-28T09:37:38.501Z,99.40
2023-01-28T09:40:06.172Z,99.20
2023-01-28T09:43:04.267Z,99.70
2023-01-28T09:45:42.644Z,99.40
2023-01-28T09:48:17.016Z,99.20
2023-01-28T09:50:52.761Z,99.40
2023-01-28T09:53:26.016Z,99.50
2023-01-28T09:56:11.528Z,99.60
2023-01-28T09:58:38.214Z,99.50
2023-01-28T10:01:36.740Z,98.80
2023-01-28T10:04:17.322Z,98.20
2023-01-28T10:09:41.232Z,99.90
2023-01-28T10:12:16.479Z,97.60
2023-01-28T10:15:01.838Z,97.20
2023-01-28T10:17:31.560Z,97.70
2023-01-28T10:20:11.862Z,97.80
2023-01-28T10:22:49.087Z,97.80
2023-01-28T10:25:25.657Z,97.30
2023-01-28T10:27:52.478Z,98.00
2023-01-28T10:30:27.842Z,98.40
2023-01-28T10:33:06.461Z,98.10
2023-01-28T10:35:39.373Z,98.20
2023-01-28T10:38:09.825Z,98.00
2023-01-28T10:40:36.911Z,98.60
2023-01-28T10:43:03.638Z,98.80
2023-01-28T10:45:36.244Z,98.70
2023-01-28T10:48:24.787Z,98.30
2023-01-28T10:51:01.973Z,97.70
2023-01-28T10:53:46.893Z,97.90
2023-01-28T10:56:23.377Z,97.80
2023-01-28T10:59:03.656Z,97.90
2023-01-28T11:01:43.858Z,97.70
2023-01-28T11:04:26.230Z,97.70
2023-01-28T11:06:57.933Z,97.90
2023-01-28T11:09:31.110Z,98.10
2023-01-28T11:11:59.413Z,98.40
2023-01-28T11:14:27.887Z,96.90
2023-01-28T11:16:57.705Z,96.80
2023-01-28T11:19:34.749Z,96.70
2023-01-28T11:22:02.868Z,96.90
2023-01-28T11:24:33.310Z,96.70
2023-01-28T11:27:11.276Z,97.30
2023-01-28T11:29:39.931Z,97.60
2023-01-28T11:32:20.243Z,97.00
2023-01-28T11:34:52.442Z,96.70
2023-01-28T11:37:22.828Z,96.70
2023-01-28T11:39:49.684Z,97.10
2023-01-28T11:42:19.362Z,97.00
2023-01-28T11:44:49.998Z,96.80
2023-01-28T11:47:27.524Z,96.70
2023-01-28T11:50:18.839Z,96.90
2023-01-28T11:53:25.877Z,96.40
2023-01-28T11:56:23.882Z,94.90
2023-01-28T11:59:28.503Z,95.20
2023-01-28T12:02:33.116Z,95.30
2023-01-28T12:05:16.360Z,95.10
2023-01-28T12:08:01.923Z,95.10
2023-01-28T12:11:07.712Z,95.60
2023-01-28T12:13:52.459Z,96.20
2023-01-28T12:16:33.646Z,96.70
2023-01-28T12:19:33.814Z,96.00
2023-01-28T12:22:28.542Z,96.10
2023-01-28T12:25:19.908Z,96.80
2023-01-28T12:28:10.802Z,97.20
2023-01-28T12:30:50.743Z,97.50
2023-01-28T12:33:54.696Z,97.40
2023-01-28T12:36:50.373Z,96.90
2023-01-28T12:39:52.827Z,96.60
2023-01-28T12:42:42.418Z,96.30
2023-01-28T12:45:16.369Z,95.30
2023-01-28T12:47:51.504Z,95.90
2023-01-28T12:50:32.109Z,96.00
2023-01-28T12:53:10.532Z,96.00
2023-01-28T12:55:43.630Z,95.50
2023-01-28T12:58:18.698Z,95.90
2023-01-28T13:00:56.124Z,95.80
2023-01-28T13:03:37.167Z,95.60
2023-01-28T13:06:14.919Z,95.50
2023-01-28T13:08:41.811Z,95.90
2023-01-28T13:11:14.819Z,95.30
2023-01-28T13:13:43.485Z,94.50
2023-01-28T13:16:11.443Z,95.00
2023-01-28T13:18:42.313Z,95.00
2023-01-28T13:21:24.074Z,94.00
2023-01-28T13:24:12.003Z,94.00
2023-01-28T13:26:50.350Z,94.10
2023-01-28T13:29:26.074Z,94.20
2023-01-28T13:31:55.185Z,94.00
2023-01-28T13:34:32.840Z,94.60
2023-01-28T13:37:05.885Z,94.40
2023-01-28T13:39:35.444Z,93.70
2023-01-28T13:42:25.335Z,93.50
2023-01-28T13:44:52.407Z,94.40
2023-01-28T13:47:27.054Z,94.70
2023-01-28T13:50:14.042Z,94.80
2023-01-28T13:53:03.975Z,94.70
2023-01-28T13:55:44.551Z,94.00
2023-01-28T13:58:17.698Z,93.90
2023-01-28T14:01:03.356Z,94.20
2023-01-28T14:04:07.893Z,94.50
2023-01-28T14:06:58.779Z,93.90
2023-01-28T14:09:45.473Z,94.30
2023-01-28T14:12:39.848Z,94.50
2023-01-28T14:15:24.718Z,94.30
2023-01-28T14:17:54.488Z,94.10
2023-01-28T14:20:26.581Z,94.00
2023-01-28T14:23:01.336Z,93.80
2023-01-28T14:25:55.356Z,93.90
2023-01-28T14:28:59.791Z,94.20
2023-01-28T14:31:39.239Z,93.80
2023-01-28T14:34:29.369Z,93.80
2023-01-28T14:37:14.986Z,94.10
2023-01-28T14:39:46.949Z,94.00
2023-01-28T14:42:20.170Z,93.80
2023-01-28T14:44:50.934Z,94.20
2023-01-28T14:47:25.589Z,93.80
2023-01-28T14:50:14.785Z,93.40
2023-01-28T14:52:41.679Z,93.60
2023-01-28T14:55:26.523Z,93.70
2023-01-28T14:57:59.598Z,94.30
2023-01-28T15:00:30.632Z,94.10
2023-01-28T15:02:57.568Z,94.00
2023-01-28T15:05:29.206Z,94.00
2023-01-28T15:07:56.435Z,93.70
2023-01-28T15:10:37.497Z,93.40
2023-01-28T15:13:13.812Z,93.70
2023-01-28T15:15:41.479Z,93.70
2023-01-28T15:18:13.731Z,94.10
2023-01-28T15:20:45.439Z,94.20
2023-01-28T15:25:44.768Z,93.60
2023-01-28T15:28:36.996Z,94.10
2023-01-28T15:31:03.890Z,94.20
2023-01-28T15:33:30.636Z,93.80
2023-01-28T15:35:58.864Z,93.70
2023-01-28T15:38:28.342Z,94.20
2023-01-28T15:41:01.105Z,95.00
2023-01-28T15:43:34.289Z,95.30
2023-01-28T15:46:01.629Z,95.40
2023-01-28T15:48:32.915Z,95.30
2023-01-28T15:50:59.564Z,95.70
2023-01-28T15:53:28.468Z,95.70
2023-01-28T15:56:08.143Z,95.00
2023-01-28T15:58:37.173Z,95.00
2023-01-28T16:01:13.557Z,95.50
2023-01-28T16:03:44.258Z,95.60
2023-01-28T16:06:13.845Z,95.40
2023-01-28T16:08:46.348Z,95.50
2023-01-28T16:11:13.746Z,95.40
2023-01-28T16:13:44.187Z,95.00
2023-01-28T16:16:12.056Z,95.60
2023-01-28T16:18:52.527Z,95.90
2023-01-28T16:21:23.795Z,96.40
2023-01-28T16:24:03.057Z,96.80
2023-01-28T16:26:32.826Z,97.20
2023-01-28T16:29:20.266Z,97.50
2023-01-28T16:31:46.933Z,97.50
2023-01-28T16:34:13.591Z,97.20
2023-01-28T16:36:40.322Z,97.80
2023-01-28T16:39:06.980Z,97.90
2023-01-28T16:41:40.383Z,98.00
2023-01-28T16:44:07.179Z,97.60
2023-01-28T16:46:34.789Z,97.00
2023-01-28T16:49:02.215Z,96.60
2023-01-28T16:51:29.369Z,96.80
2023-01-28T16:53:57.643Z,97.30
2023-01-28T16:56:44.388Z,97.80
2023-01-28T16:59:14.679Z,98.00
2023-01-28T17:01:41.750Z,98.30
2023-01-28T17:04:12.732Z,98.40
2023-01-28T17:06:42.783Z,98.70
2023-01-28T17:09:12.428Z,98.70
2023-01-28T17:11:42.085Z,98.80
2023-01-28T17:14:10.097Z,99.40
2023-01-28T17:16:37.368Z,99.00
2023-01-28T17:19:04.573Z,99.10
2023-01-28T17:21:31.355Z,99.30
2023-01-28T17:23:59.521Z,99.30
2023-01-28T17:26:28.832Z,98.90
2023-01-28T17:28:56.248Z,98.60
2023-01-28T17:31:23.319Z,99.00
2023-01-28T17:33:57.564Z,99.90
2023-01-28T17:36:25.743Z,99.90
2023-01-28T17:38:52.572Z,99.90
2023-01-28T17:41:19.979Z,99.90
2023-01-28T17:43:54.823Z,99.90
2023-01-28T17:46:23.484Z,99.90
2023-01-28T17:48:50.325Z,99.90
2023-01-28T17:51:17.580Z,99.90
2023-01-28T17:53:49.633Z,99.90
2023-01-28T17:56:18.533Z,99.90
2023-01-28T17:58:52.928Z,99.90
2023-01-28T18:01:21.076Z,99.90
2023-01-28T18:03:48.053Z,99.90
2023-01-28T18:06:15.317Z,99.90
2023-01-28T18:08:42.100Z,99.90
2023-01-28T18:11:11.312Z,99.90
2023-01-28T18:13:41.846Z,99.90
2023-01-28T18:16:14.629Z,99.90
2023-01-28T18:18:41.986Z,99.90
2023-01-28T18:21:39.912Z,99.90
2023-01-28T18:24:17.629Z,99.90
2023-01-28T18:26:44.502Z,99.90
2023-01-28T18:29:16.491Z,99.90
2023-01-28T18:31:43.223Z,99.90
2023-01-28T18:34:09.951Z,99.90
2023-01-28T18:36:36.666Z,99.90
2023-01-28T18:39:03.354Z,99.90
2023-01-28T18:41:30.017Z,99.90
2023-01-28T18:43:56.782Z,99.90
2023-01-28T18:46:23.450Z,99.90
2023-01-28T18:48:50.098Z,99.90
2023-01-28T18:51:29.461Z,99.90
2023-01-28T18:54:02.070Z,99.90
2023-01-28T18:56:29.822Z,99.90
2023-01-28T18:59:01.661Z,99.90
2023-01-28T19:01:29.425Z,99.90
2023-01-28T19:03:57.226Z,99.90
2023-01-28T19:06:25.329Z,99.90
2023-01-28T19:08:54.005Z,99.90
2023-01-28T19:11:22.321Z,99.90
2023-01-28T19:13:49.804Z,99.90
2023-01-28T19:16:16.704Z,99.90
2023-01-28T19:18:43.441Z,99.90
2023-01-28T19:21:10.301Z,99.90
2023-01-28T19:23:49.228Z,99.90
2023-01-28T19:26:20.900Z,99.90
2023-01-28T19:28:49.136Z,99.90
2023-01-28T19:31:15.970Z,99.90
2023-01-28T19:33:42.657Z,99.90
2023-01-28T19:36:10.149Z,99.90
2023-01-28T19:38:37.120Z,99.90
2023-01-28T19:41:05.733Z,99.90
2023-01-28T19:43:34.422Z,99.90
2023-01-28T19:46:05.947Z,99.90
2023-01-28T19:48:33.432Z,99.90
2023-01-28T19:51:07.284Z,99.90
2023-01-28T19:53:35.704Z,99.90
2023-01-28T19:56:03.892Z,99.90
2023-01-28T19:58:35.514Z,99.90
2023-01-28T20:01:17.421Z,99.90
2023-01-28T20:03:45.679Z,99.90
2023-01-28T20:06:14.538Z,99.90
2023-01-28T20:08:41.823Z,99.90
2023-01-28T20:11:11.624Z,99.90
2023-01-28T20:13:39.850Z,99.90
2023-01-28T20:16:08.734Z,99.90
2023-01-28T20:18:36.817Z,99.90
2023-01-28T20:21:05.238Z,99.90
2023-01-28T20:23:32.706Z,99.90
2023-01-28T20:26:00.872Z,99.90
2023-01-28T20:28:28.109Z,99.90
2023-01-28T20:30:56.148Z,99.90
2023-01-28T20:33:23.817Z,99.90
2023-01-28T20:35:50.439Z,99.90
2023-01-28T20:38:17.102Z,99.90
2023-01-28T20:40:43.885Z,99.90
2023-01-28T20:43:10.850Z,99.90
2023-01-28T20:45:38.176Z,99.90
2023-01-28T20:48:05.180Z,99.90
2023-01-28T20:50:31.894Z,99.90
2023-01-28T20:52:58.531Z,99.90
2023-01-28T20:55:25.515Z,99.90
2023-01-28T20:57:52.700Z,99.90
2023-01-28T21:00:19.862Z,99.90
2023-01-28T21:02:46.588Z,99.90
2023-01-28T21:05:13.452Z,99.90
2023-01-28T21:07:40.332Z,99.90
2023-01-28T21:10:07.893Z,99.90
2023-01-28T21:12:34.612Z,99.90
2023-01-28T21:15:01.433Z,99.90
2023-01-28T21:17:28.073Z,99.90
2023-01-28T21:19:54.767Z,99.90
2023-01-28T21:22:21.471Z,99.90
2023-01-28T21:24:51.039Z,99.90
2023-01-28T21:27:17.685Z,99.90
2023-01-28T21:29:44.369Z,99.90
2023-01-28T21:32:11.065Z,99.90
2023-01-28T21:34:38.016Z,99.90
2023-01-28T21:37:04.636Z,99.90
2023-01-28T21:39:31.288Z,99.90
2023-01-28T21:41:57.923Z,99.90
2023-01-28T21:44:24.673Z,99.90
2023-01-28T21:46:51.374Z,99.90
2023-01-28T21:49:18.135Z,99.90
2023-01-28T21:51:47.677Z,99.90
2023-01-28T21:54:20.432Z,99.90
2023-01-28T21:56:48.939Z,99.90
2023-01-28T21:59:28.859Z,99.90
2023-01-28T22:02:02.906Z,99.90
2023-01-28T22:04:35.388Z,99.90
2023-01-28T22:07:03.536Z,99.90
2023-01-28T22:09:31.105Z,99.90
2023-01-28T22:11:58.283Z,99.90
2023-01-28T22:14:25.040Z,99.90
2023-01-28T22:16:52.154Z,99.90
2023-01-28T22:19:18.989Z,99.90
2023-01-28T22:21:46.694Z,99.90
2023-01-28T22:24:19.075Z,99.90
2023-01-28T22:26:47.286Z,99.90
2023-01-28T22:29:15.768Z,99.90
2023-01-28T22:31:45.750Z,99.90
2023-01-28T22:34:12.778Z,99.90
2023-01-28T22:36:39.615Z,99.90
2023-01-28T22:39:08.007Z,99.90
2023-01-28T22:41:35.060Z,99.90
2023-01-28T22:44:03.617Z,99.90
2023-01-28T22:46:33.275Z,99.90
2023-01-28T22:49:00.495Z,99.90
2023-01-28T22:51:30.243Z,99.90
2023-01-28T22:53:57.755Z,99.90
2023-01-28T22:56:26.707Z,99.90
2023-01-28T22:58:57.907Z,99.90
2023-01-28T23:01:25.213Z,99.90
2023-01-28T23:03:52.411Z,99.90
2023-01-28T23:06:21.516Z,99.90
2023-01-28T23:08:48.578Z,99.90
2023-01-28T23:11:22.816Z,99.90
2023-01-28T23:14:08.164Z,99.90
2023-01-28T23:16:53.633Z,99.90
2023-01-28T23:19:39.211Z,99.90
2023-01-28T23:22:24.789Z,99.90
2023-01-28T23:24:51.616Z,99.90
2023-01-28T23:27:18.279Z,99.90
2023-01-28T23:29:45.064Z,99.90
2023-01-28T23:32:11.890Z,99.90
2023-01-28T23:34:41.311Z,99.90
2023-01-28T23:37:09.976Z,99.90
2023-01-28T23:39:36.706Z,99.90
2023-01-28T23:42:14.715Z,99.90
2023-01-28T23:44:41.790Z,99.90
2023-01-28T23:47:09.669Z,99.90
2023-01-28T23:49:36.555Z,99.90
2023-01-28T23:52:04.313Z,99.90
2023-01-28T23:54:31.490Z,99.90
2023-01-28T23:56:58.643Z,99.90
2023-01-28T23:59:25.463Z,99.90
